sensor_id;sensor_type;location;lat;lon;timestamp;P1;durP1;ratioP1;P2;durP2;ratioP2
7211;SDS011;3647;48.792;9.802;2022-08-21T08:10:08;4.28;;;3.03;;
7211;SDS011;3647;48.792;9.802;2022-08-21T08:12:36;3.97;;;2.70;;
7211;SDS011;3647;48.792;9.802;2022-08-21T08:15:05;5.72;;;3.22;;
7211;SDS011;3647;48.792;9.802;2022-08-21T08:17:34;8.10;;;3.40;;
7211;SDS011;3647;48.792;9.802;2022-08-21T08:20:03;5.20;;;3.10;;
7211;SDS011;3647;48.792;9.802;2022-08-21T08:22:31;3.70;;;2.72;;
7211;SDS011;3647;48.792;9.802;2022-08-21T08:24:59;3.95;;;2.80;;
7211;SDS011;3647;48.792;9.802;2022-08-21T08:27:28;7.38;;;3.55;;
7211;SDS011;3647;48.792;9.802;2022-08-21T08:29:55;3.28;;;2.88;;
7211;SDS011;3647;48.792;9.802;2022-08-21T08:32:22;5.00;;;2.90;;
7211;SDS011;3647;48.792;9.802;2022-08-21T08:34:48;4.55;;;3.17;;
7211;SDS011;3647;48.792;9.802;2022-08-21T08:37:16;4.72;;;2.85;;
7211;SDS011;3647;48.792;9.802;2022-08-21T08:39:45;6.03;;;3.72;;
7211;SDS011;3647;48.792;9.802;2022-08-21T08:42:13;3.47;;;2.92;;
7211;SDS011;3647;48.792;9.802;2022-08-21T08:44:43;4.72;;;3.45;;
7211;SDS011;3647;48.792;9.802;2022-08-21T08:47:13;5.07;;;3.40;;
7211;SDS011;3647;48.792;9.802;2022-08-21T08:49:43;5.28;;;3.15;;
7211;SDS011;3647;48.792;9.802;2022-08-21T08:52:20;5.22;;;3.13;;
7211;SDS011;3647;48.792;9.802;2022-08-21T08:54:55;6.57;;;3.30;;
7211;SDS011;3647;48.792;9.802;2022-08-21T08:57:27;3.50;;;3.20;;
7211;SDS011;3647;48.792;9.802;2022-08-21T09:00:04;5.75;;;3.38;;
7211;SDS011;3647;48.792;9.802;2022-08-21T09:02:33;3.80;;;3.40;;
7211;SDS011;3647;48.792;9.802;2022-08-21T09:05:00;3.83;;;3.33;;
7211;SDS011;3647;48.792;9.802;2022-08-21T09:07:30;4.88;;;2.97;;
7211;SDS011;3647;48.792;9.802;2022-08-21T09:10:06;9.02;;;4.00;;
7211;SDS011;3647;48.792;9.802;2022-08-21T09:12:39;5.43;;;3.38;;
7211;SDS011;3647;48.792;9.802;2022-08-21T09:15:21;4.95;;;3.45;;
7211;SDS011;3647;48.792;9.802;2022-08-21T09:17:59;6.43;;;4.47;;
7211;SDS011;3647;48.792;9.802;2022-08-21T09:20:44;4.82;;;3.92;;
7211;SDS011;3647;48.792;9.802;2022-08-21T09:23:22;9.55;;;4.28;;
7211;SDS011;3647;48.792;9.802;2022-08-21T09:25:57;5.13;;;4.22;;
7211;SDS011;3647;48.792;9.802;2022-08-21T09:28:31;7.57;;;4.05;;
7211;SDS011;3647;48.792;9.802;2022-08-21T09:31:01;5.53;;;3.50;;
7211;SDS011;3647;48.792;9.802;2022-08-21T09:33:31;4.68;;;3.58;;
7211;SDS011;3647;48.792;9.802;2022-08-21T09:35:58;4.22;;;3.47;;
7211;SDS011;3647;48.792;9.802;2022-08-21T09:38:27;4.47;;;3.25;;
7211;SDS011;3647;48.792;9.802;2022-08-21T09:40:58;4.22;;;3.20;;
7211;SDS011;3647;48.792;9.802;2022-08-21T09:43:27;5.28;;;3.30;;
7211;SDS011;3647;48.792;9.802;2022-08-21T09:46:03;4.35;;;3.30;;
7211;SDS011;3647;48.792;9.802;2022-08-21T09:48:42;3.83;;;3.30;;
7211;SDS011;3647;48.792;9.802;2022-08-21T09:51:11;3.75;;;2.78;;
7211;SDS011;3647;48.792;9.802;2022-08-21T09:53:43;5.30;;;3.35;;
7211;SDS011;3647;48.792;9.802;2022-08-21T09:56:25;7.75;;;3.83;;
7211;SDS011;3647;48.792;9.802;2022-08-21T09:59:13;3.90;;;3.40;;
7211;SDS011;3647;48.792;9.802;2022-08-21T10:01:43;3.92;;;3.00;;
7211;SDS011;3647;48.792;9.802;2022-08-21T10:04:12;4.22;;;3.13;;
7211;SDS011;3647;48.792;9.802;2022-08-21T10:06:39;5.15;;;3.22;;
7211;SDS011;3647;48.792;9.802;2022-08-21T10:09:08;6.00;;;3.42;;
7211;SDS011;3647;48.792;9.802;2022-08-21T10:11:36;5.85;;;3.03;;
7211;SDS011;3647;48.792;9.802;2022-08-21T10:14:07;4.70;;;3.38;;
7211;SDS011;3647;48.792;9.802;2022-08-21T10:16:47;4.15;;;2.92;;
7211;SDS011;3647;48.792;9.802;2022-08-21T10:19:26;4.25;;;2.58;;
7211;SDS011;3647;48.792;9.802;2022-08-21T10:22:05;4.55;;;3.03;;
7211;SDS011;3647;48.792;9.802;2022-08-21T10:24:42;4.75;;;3.38;;
7211;SDS011;3647;48.792;9.802;2022-08-21T10:27:16;4.85;;;2.97;;
7211;SDS011;3647;48.792;9.802;2022-08-21T10:29:51;6.03;;;3.05;;
7211;SDS011;3647;48.792;9.802;2022-08-21T10:32:29;4.68;;;2.63;;
7211;SDS011;3647;48.792;9.802;2022-08-21T10:35:07;4.60;;;2.95;;
7211;SDS011;3647;48.792;9.802;2022-08-21T10:37:40;4.18;;;2.60;;
7211;SDS011;3647;48.792;9.802;2022-08-21T10:40:20;4.43;;;2.92;;
7211;SDS011;3647;48.792;9.802;2022-08-21T10:42:56;4.72;;;3.08;;
7211;SDS011;3647;48.792;9.802;2022-08-21T10:45:32;4.68;;;3.17;;
7211;SDS011;3647;48.792;9.802;2022-08-21T10:48:15;5.05;;;2.97;;
7211;SDS011;3647;48.792;9.802;2022-08-21T10:50:50;8.48;;;3.30;;
7211;SDS011;3647;48.792;9.802;2022-08-21T10:53:28;4.82;;;3.20;;
7211;SDS011;3647;48.792;9.802;2022-08-21T10:56:05;6.22;;;2.65;;
7211;SDS011;3647;48.792;9.802;2022-08-21T10:58:40;4.90;;;2.58;;
7211;SDS011;3647;48.792;9.802;2022-08-21T11:01:13;4.75;;;2.95;;
7211;SDS011;3647;48.792;9.802;2022-08-21T11:03:48;3.60;;;2.38;;
7211;SDS011;3647;48.792;9.802;2022-08-21T11:06:20;3.13;;;2.70;;
7211;SDS011;3647;48.792;9.802;2022-08-21T11:08:51;6.25;;;2.75;;
7211;SDS011;3647;48.792;9.802;2022-08-21T11:11:22;4.47;;;3.20;;
7211;SDS011;3647;48.792;9.802;2022-08-21T11:13:54;5.53;;;2.85;;
7211;SDS011;3647;48.792;9.802;2022-08-21T11:16:25;7.22;;;4.05;;
7211;SDS011;3647;48.792;9.802;2022-08-21T11:19:02;3.60;;;2.72;;
7211;SDS011;3647;48.792;9.802;2022-08-21T11:21:36;5.55;;;3.13;;
7211;SDS011;3647;48.792;9.802;2022-08-21T11:26:57;6.10;;;3.00;;
7211;SDS011;3647;48.792;9.802;2022-08-21T11:29:29;4.47;;;3.30;;
7211;SDS011;3647;48.792;9.802;2022-08-21T11:32:02;4.40;;;3.10;;
7211;SDS011;3647;48.792;9.802;2022-08-21T11:34:50;4.07;;;3.35;;
7211;SDS011;3647;48.792;9.802;2022-08-21T11:37:29;6.40;;;3.83;;
7211;SDS011;3647;48.792;9.802;2022-08-21T11:40:08;4.97;;;3.83;;
7211;SDS011;3647;48.792;9.802;2022-08-21T11:42:46;4.13;;;3.25;;
7211;SDS011;3647;48.792;9.802;2022-08-21T11:45:22;4.13;;;2.80;;
7211;SDS011;3647;48.792;9.802;2022-08-21T11:47:59;3.70;;;2.63;;
7211;SDS011;3647;48.792;9.802;2022-08-21T11:50:34;7.15;;;3.35;;
7211;SDS011;3647;48.792;9.802;2022-08-21T11:53:05;4.85;;;3.17;;
7211;SDS011;3647;48.792;9.802;2022-08-21T11:55:39;4.40;;;3.22;;
7211;SDS011;3647;48.792;9.802;2022-08-21T11:58:11;5.20;;;3.67;;
7211;SDS011;3647;48.792;9.802;2022-08-21T12:00:47;3.88;;;2.92;;
7211;SDS011;3647;48.792;9.802;2022-08-21T12:03:17;6.20;;;3.08;;
7211;SDS011;3647;48.792;9.802;2022-08-21T12:05:53;5.65;;;3.75;;
7211;SDS011;3647;48.792;9.802;2022-08-21T12:08:27;8.10;;;3.38;;
7211;SDS011;3647;48.792;9.802;2022-08-21T12:11:01;4.60;;;3.10;;
7211;SDS011;3647;48.792;9.802;2022-08-21T12:13:31;3.97;;;3.05;;
7211;SDS011;3647;48.792;9.802;2022-08-21T12:16:10;5.07;;;2.78;;
7211;SDS011;3647;48.792;9.802;2022-08-21T12:18:39;6.90;;;4.35;;
7211;SDS011;3647;48.792;9.802;2022-08-21T12:21:19;5.32;;;3.22;;
7211;SDS011;3647;48.792;9.802;2022-08-21T12:23:57;5.72;;;3.78;;
7211;SDS011;3647;48.792;9.802;2022-08-21T12:26:28;4.63;;;3.17;;
7211;SDS011;3647;48.792;9.802;2022-08-21T12:31:53;4.22;;;2.95;;
7211;SDS011;3647;48.792;9.802;2022-08-21T12:34:23;3.25;;;2.85;;
7211;SDS011;3647;48.792;9.802;2022-08-21T12:36:58;3.90;;;2.97;;
7211;SDS011;3647;48.792;9.802;2022-08-21T12:39:27;4.63;;;2.65;;
7211;SDS011;3647;48.792;9.802;2022-08-21T12:41:58;4.05;;;2.83;;
7211;SDS011;3647;48.792;9.802;2022-08-21T12:44:31;4.35;;;2.85;;
7211;SDS011;3647;48.792;9.802;2022-08-21T12:47:04;4.40;;;2.58;;
7211;SDS011;3647;48.792;9.802;2022-08-21T12:49:34;6.60;;;3.00;;
7211;SDS011;3647;48.792;9.802;2022-08-21T12:52:07;4.53;;;3.20;;
7211;SDS011;3647;48.792;9.802;2022-08-21T12:54:39;3.40;;;2.72;;
7211;SDS011;3647;48.792;9.802;2022-08-21T12:57:09;4.15;;;2.63;;
7211;SDS011;3647;48.792;9.802;2022-08-21T12:59:45;5.20;;;3.67;;
7211;SDS011;3647;48.792;9.802;2022-08-21T13:02:16;5.82;;;3.20;;
7211;SDS011;3647;48.792;9.802;2022-08-21T13:04:47;4.55;;;3.35;;
7211;SDS011;3647;48.792;9.802;2022-08-21T13:07:19;5.18;;;3.00;;
7211;SDS011;3647;48.792;9.802;2022-08-21T13:09:52;7.63;;;3.95;;
7211;SDS011;3647;48.792;9.802;2022-08-21T13:12:21;4.25;;;3.08;;
7211;SDS011;3647;48.792;9.802;2022-08-21T13:14:50;7.55;;;3.40;;
7211;SDS011;3647;48.792;9.802;2022-08-21T13:17:21;4.07;;;2.63;;
7211;SDS011;3647;48.792;9.802;2022-08-21T13:19:58;4.10;;;2.70;;
7211;SDS011;3647;48.792;9.802;2022-08-21T13:22:28;3.90;;;2.65;;
7211;SDS011;3647;48.792;9.802;2022-08-21T13:24:55;5.85;;;2.80;;
7211;SDS011;3647;48.792;9.802;2022-08-21T13:27:24;7.43;;;3.53;;
7211;SDS011;3647;48.792;9.802;2022-08-21T13:30:06;3.45;;;2.53;;
7211;SDS011;3647;48.792;9.802;2022-08-21T13:32:36;3.83;;;2.92;;
7211;SDS011;3647;48.792;9.802;2022-08-21T13:35:07;4.88;;;2.53;;
7211;SDS011;3647;48.792;9.802;2022-08-21T13:37:39;4.03;;;2.83;;
7211;SDS011;3647;48.792;9.802;2022-08-21T13:40:07;5.57;;;3.03;;
7211;SDS011;3647;48.792;9.802;2022-08-21T13:42:40;4.07;;;3.03;;
7211;SDS011;3647;48.792;9.802;2022-08-21T13:45:11;4.32;;;2.60;;
7211;SDS011;3647;48.792;9.802;2022-08-21T13:47:41;4.97;;;2.95;;
7211;SDS011;3647;48.792;9.802;2022-08-21T13:50:09;5.65;;;2.83;;
7211;SDS011;3647;48.792;9.802;2022-08-21T13:52:46;4.15;;;3.03;;
7211;SDS011;3647;48.792;9.802;2022-08-21T13:55:16;5.22;;;2.80;;
7211;SDS011;3647;48.792;9.802;2022-08-21T13:57:43;4.25;;;3.08;;
7211;SDS011;3647;48.792;9.802;2022-08-21T14:00:11;6.22;;;3.35;;
7211;SDS011;3647;48.792;9.802;2022-08-21T14:02:41;3.13;;;2.70;;
7211;SDS011;3647;48.792;9.802;2022-08-21T14:05:14;3.50;;;2.55;;
7211;SDS011;3647;48.792;9.802;2022-08-21T14:07:47;8.00;;;2.55;;
7211;SDS011;3647;48.792;9.802;2022-08-21T14:10:18;4.30;;;2.95;;
7211;SDS011;3647;48.792;9.802;2022-08-21T14:12:47;5.82;;;2.40;;
7211;SDS011;3647;48.792;9.802;2022-08-21T14:15:17;2.90;;;2.58;;
7211;SDS011;3647;48.792;9.802;2022-08-21T14:17:48;3.10;;;2.60;;
7211;SDS011;3647;48.792;9.802;2022-08-21T14:20:25;3.60;;;2.60;;
7211;SDS011;3647;48.792;9.802;2022-08-21T14:22:55;2.92;;;2.33;;
7211;SDS011;3647;48.792;9.802;2022-08-21T14:25:29;4.13;;;2.60;;
7211;SDS011;3647;48.792;9.802;2022-08-21T14:28:03;4.57;;;2.25;;
7211;SDS011;3647;48.792;9.802;2022-08-21T14:30:37;4.35;;;2.60;;
7211;SDS011;3647;48.792;9.802;2022-08-21T14:33:07;3.63;;;2.50;;
7211;SDS011;3647;48.792;9.802;2022-08-21T14:35:36;3.35;;;2.55;;
7211;SDS011;3647;48.792;9.802;2022-08-21T14:38:12;4.18;;;2.40;;
7211;SDS011;3647;48.792;9.802;2022-08-21T14:40:40;2.90;;;2.50;;
7211;SDS011;3647;48.792;9.802;2022-08-21T14:43:08;3.10;;;2.25;;
7211;SDS011;3647;48.792;9.802;2022-08-21T14:45:35;4.80;;;2.53;;
7211;SDS011;3647;48.792;9.802;2022-08-21T14:48:03;4.13;;;2.40;;
7211;SDS011;3647;48.792;9.802;2022-08-21T14:50:30;3.65;;;2.63;;
7211;SDS011;3647;48.792;9.802;2022-08-21T14:52:57;3.13;;;2.50;;
7211;SDS011;3647;48.792;9.802;2022-08-21T14:55:25;4.03;;;2.30;;
7211;SDS011;3647;48.792;9.802;2022-08-21T14:57:53;5.82;;;2.42;;
7211;SDS011;3647;48.792;9.802;2022-08-21T15:00:23;4.20;;;2.60;;
7211;SDS011;3647;48.792;9.802;2022-08-21T15:02:51;2.72;;;2.20;;
7211;SDS011;3647;48.792;9.802;2022-08-21T15:05:18;3.97;;;2.60;;
7211;SDS011;3647;48.792;9.802;2022-08-21T15:07:45;4.03;;;2.45;;
7211;SDS011;3647;48.792;9.802;2022-08-21T15:10:12;4.80;;;2.15;;
7211;SDS011;3647;48.792;9.802;2022-08-21T15:12:41;4.13;;;2.25;;
7211;SDS011;3647;48.792;9.802;2022-08-21T15:15:08;6.53;;;2.97;;
7211;SDS011;3647;48.792;9.802;2022-08-21T15:17:35;4.68;;;2.63;;
7211;SDS011;3647;48.792;9.802;2022-08-21T15:20:03;3.63;;;2.55;;
7211;SDS011;3647;48.792;9.802;2022-08-21T15:22:32;4.32;;;2.28;;
7211;SDS011;3647;48.792;9.802;2022-08-21T15:24:59;3.65;;;2.45;;
7211;SDS011;3647;48.792;9.802;2022-08-21T15:27:27;2.92;;;2.15;;
7211;SDS011;3647;48.792;9.802;2022-08-21T15:29:56;3.58;;;2.33;;
7211;SDS011;3647;48.792;9.802;2022-08-21T15:32:23;5.35;;;2.25;;
7211;SDS011;3647;48.792;9.802;2022-08-21T15:34:54;3.35;;;2.35;;
7211;SDS011;3647;48.792;9.802;2022-08-21T15:37:22;5.43;;;2.45;;
7211;SDS011;3647;48.792;9.802;2022-08-21T15:39:50;3.97;;;2.63;;
7211;SDS011;3647;48.792;9.802;2022-08-21T15:42:18;3.42;;;2.45;;
7211;SDS011;3647;48.792;9.802;2022-08-21T15:44:45;4.53;;;2.55;;
7211;SDS011;3647;48.792;9.802;2022-08-21T15:47:16;2.83;;;2.45;;
7211;SDS011;3647;48.792;9.802;2022-08-21T15:49:45;3.75;;;2.20;;
7211;SDS011;3647;48.792;9.802;2022-08-21T15:52:11;3.10;;;2.42;;
7211;SDS011;3647;48.792;9.802;2022-08-21T15:54:39;2.65;;;2.40;;
7211;SDS011;3647;48.792;9.802;2022-08-21T15:57:06;3.53;;;2.45;;
7211;SDS011;3647;48.792;9.802;2022-08-21T15:59:37;2.83;;;2.15;;
7211;SDS011;3647;48.792;9.802;2022-08-21T16:02:06;5.28;;;2.70;;
7211;SDS011;3647;48.792;9.802;2022-08-21T16:04:39;3.17;;;2.60;;
7211;SDS011;3647;48.792;9.802;2022-08-21T16:07:06;2.63;;;2.38;;
7211;SDS011;3647;48.792;9.802;2022-08-21T16:09:33;4.03;;;2.78;;
7211;SDS011;3647;48.792;9.802;2022-08-21T16:12:00;3.55;;;2.50;;
7211;SDS011;3647;48.792;9.802;2022-08-21T16:14:28;5.40;;;2.72;;
7211;SDS011;3647;48.792;9.802;2022-08-21T16:16:55;2.95;;;2.35;;
7211;SDS011;3647;48.792;9.802;2022-08-21T16:19:22;2.53;;;2.20;;
7211;SDS011;3647;48.792;9.802;2022-08-21T16:21:52;4.20;;;2.58;;
7211;SDS011;3647;48.792;9.802;2022-08-21T16:24:19;4.03;;;2.78;;
7211;SDS011;3647;48.792;9.802;2022-08-21T16:26:45;3.65;;;2.67;;
7211;SDS011;3647;48.792;9.802;2022-08-21T16:29:14;3.00;;;2.50;;
7211;SDS011;3647;48.792;9.802;2022-08-21T16:31:42;5.55;;;2.83;;
7211;SDS011;3647;48.792;9.802;2022-08-21T16:34:08;3.83;;;2.15;;
7211;SDS011;3647;48.792;9.802;2022-08-21T16:36:39;3.55;;;2.20;;
7211;SDS011;3647;48.792;9.802;2022-08-21T16:39:07;3.40;;;2.75;;
7211;SDS011;3647;48.792;9.802;2022-08-21T16:41:34;4.72;;;2.72;;
7211;SDS011;3647;48.792;9.802;2022-08-21T16:44:02;4.30;;;2.70;;
7211;SDS011;3647;48.792;9.802;2022-08-21T16:46:35;3.40;;;2.75;;
7211;SDS011;3647;48.792;9.802;2022-08-21T16:49:05;5.43;;;2.55;;
7211;SDS011;3647;48.792;9.802;2022-08-21T16:51:32;3.88;;;2.70;;
7211;SDS011;3647;48.792;9.802;2022-08-21T16:53:59;4.10;;;2.92;;
7211;SDS011;3647;48.792;9.802;2022-08-21T16:56:28;4.18;;;2.63;;
7211;SDS011;3647;48.792;9.802;2022-08-21T16:58:56;3.75;;;2.70;;
7211;SDS011;3647;48.792;9.802;2022-08-21T17:01:24;3.22;;;2.38;;
7211;SDS011;3647;48.792;9.802;2022-08-21T17:03:53;3.90;;;2.83;;
7211;SDS011;3647;48.792;9.802;2022-08-21T17:06:21;3.17;;;2.40;;
7211;SDS011;3647;48.792;9.802;2022-08-21T17:08:48;3.22;;;2.50;;
7211;SDS011;3647;48.792;9.802;2022-08-21T17:11:16;4.13;;;2.20;;
7211;SDS011;3647;48.792;9.802;2022-08-21T17:13:55;3.40;;;2.28;;
7211;SDS011;3647;48.792;9.802;2022-08-21T17:16:23;3.33;;;2.28;;
7211;SDS011;3647;48.792;9.802;2022-08-21T17:18:51;4.30;;;2.50;;
7211;SDS011;3647;48.792;9.802;2022-08-21T17:21:19;3.10;;;2.25;;
7211;SDS011;3647;48.792;9.802;2022-08-21T17:23:46;3.53;;;2.75;;
7211;SDS011;3647;48.792;9.802;2022-08-21T17:26:13;4.55;;;3.05;;
7211;SDS011;3647;48.792;9.802;2022-08-21T17:28:43;4.65;;;2.80;;
7211;SDS011;3647;48.792;9.802;2022-08-21T17:31:12;3.90;;;2.78;;
7211;SDS011;3647;48.792;9.802;2022-08-21T17:33:41;3.45;;;2.20;;
7211;SDS011;3647;48.792;9.802;2022-08-21T17:36:14;5.75;;;2.55;;
7211;SDS011;3647;48.792;9.802;2022-08-21T17:38:41;3.20;;;2.60;;
7211;SDS011;3647;48.792;9.802;2022-08-21T17:41:08;7.43;;;2.70;;
7211;SDS011;3647;48.792;9.802;2022-08-21T17:43:36;5.15;;;3.13;;
7211;SDS011;3647;48.792;9.802;2022-08-21T17:46:04;4.00;;;2.60;;
7211;SDS011;3647;48.792;9.802;2022-08-21T17:48:33;3.90;;;2.85;;
7211;SDS011;3647;48.792;9.802;2022-08-21T17:51:00;4.38;;;3.00;;
7211;SDS011;3647;48.792;9.802;2022-08-21T17:53:27;3.95;;;3.05;;
7211;SDS011;3647;48.792;9.802;2022-08-21T17:55:54;4.63;;;3.03;;
7211;SDS011;3647;48.792;9.802;2022-08-21T17:58:22;3.08;;;2.58;;
7211;SDS011;3647;48.792;9.802;2022-08-21T18:00:48;5.07;;;2.83;;
7211;SDS011;3647;48.792;9.802;2022-08-21T18:03:19;5.80;;;2.85;;
7211;SDS011;3647;48.792;9.802;2022-08-21T18:05:49;4.75;;;3.22;;
7211;SDS011;3647;48.792;9.802;2022-08-21T18:08:17;4.13;;;3.05;;
7211;SDS011;3647;48.792;9.802;2022-08-21T18:10:45;6.57;;;2.90;;
7211;SDS011;3647;48.792;9.802;2022-08-21T18:13:16;4.05;;;2.88;;
7211;SDS011;3647;48.792;9.802;2022-08-21T18:15:51;3.88;;;3.13;;
7211;SDS011;3647;48.792;9.802;2022-08-21T18:18:19;3.35;;;2.97;;
7211;SDS011;3647;48.792;9.802;2022-08-21T18:20:46;5.68;;;3.60;;
7211;SDS011;3647;48.792;9.802;2022-08-21T18:23:15;4.13;;;3.50;;
7211;SDS011;3647;48.792;9.802;2022-08-21T18:25:54;3.78;;;3.10;;
7211;SDS011;3647;48.792;9.802;2022-08-21T18:28:23;7.40;;;3.40;;
7211;SDS011;3647;48.792;9.802;2022-08-21T18:30:51;4.40;;;2.90;;
7211;SDS011;3647;48.792;9.802;2022-08-21T18:33:19;4.30;;;3.05;;
7211;SDS011;3647;48.792;9.802;2022-08-21T18:35:49;4.03;;;3.30;;
7211;SDS011;3647;48.792;9.802;2022-08-21T18:38:16;5.85;;;3.10;;
7211;SDS011;3647;48.792;9.802;2022-08-21T18:40:44;3.58;;;3.22;;
7211;SDS011;3647;48.792;9.802;2022-08-21T18:43:14;4.18;;;3.22;;
7211;SDS011;3647;48.792;9.802;2022-08-21T18:45:41;3.65;;;2.80;;
7211;SDS011;3647;48.792;9.802;2022-08-21T18:48:09;3.45;;;3.15;;
7211;SDS011;3647;48.792;9.802;2022-08-21T18:50:39;6.07;;;3.22;;
7211;SDS011;3647;48.792;9.802;2022-08-21T18:53:13;3.88;;;3.15;;
7211;SDS011;3647;48.792;9.802;2022-08-21T18:55:42;6.15;;;3.45;;
7211;SDS011;3647;48.792;9.802;2022-08-21T18:58:10;8.43;;;3.10;;
7211;SDS011;3647;48.792;9.802;2022-08-21T19:00:39;6.53;;;2.78;;
7211;SDS011;3647;48.792;9.802;2022-08-21T19:03:11;4.47;;;3.13;;
7211;SDS011;3647;48.792;9.802;2022-08-21T19:05:38;5.75;;;3.17;;
7211;SDS011;3647;48.792;9.802;2022-08-21T19:08:07;5.40;;;3.50;;
7211;SDS011;3647;48.792;9.802;2022-08-21T19:10:37;5.72;;;3.63;;
7211;SDS011;3647;48.792;9.802;2022-08-21T19:13:05;4.43;;;3.20;;
7211;SDS011;3647;48.792;9.802;2022-08-21T19:15:32;4.95;;;3.70;;
7211;SDS011;3647;48.792;9.802;2022-08-21T19:18:02;5.70;;;3.17;;
7211;SDS011;3647;48.792;9.802;2022-08-21T19:20:31;5.20;;;3.38;;
7211;SDS011;3647;48.792;9.802;2022-08-21T19:23:01;6.65;;;3.58;;
7211;SDS011;3647;48.792;9.802;2022-08-21T19:25:32;3.22;;;2.90;;
7211;SDS011;3647;48.792;9.802;2022-08-21T19:28:00;6.93;;;2.92;;
7211;SDS011;3647;48.792;9.802;2022-08-21T19:30:28;5.60;;;2.90;;
7211;SDS011;3647;48.792;9.802;2022-08-21T19:32:56;4.05;;;3.00;;
7211;SDS011;3647;48.792;9.802;2022-08-21T19:35:22;4.57;;;3.10;;
7211;SDS011;3647;48.792;9.802;2022-08-21T19:37:49;4.10;;;3.30;;
7211;SDS011;3647;48.792;9.802;2022-08-21T19:40:16;3.22;;;2.90;;
7211;SDS011;3647;48.792;9.802;2022-08-21T19:42:44;4.57;;;3.10;;
7211;SDS011;3647;48.792;9.802;2022-08-21T19:45:12;5.28;;;3.42;;
7211;SDS011;3647;48.792;9.802;2022-08-21T19:47:39;5.28;;;3.53;;
7211;SDS011;3647;48.792;9.802;2022-08-21T19:50:11;5.22;;;3.35;;
7211;SDS011;3647;48.792;9.802;2022-08-21T19:52:39;4.60;;;3.83;;
7211;SDS011;3647;48.792;9.802;2022-08-21T19:55:06;6.60;;;3.67;;
7211;SDS011;3647;48.792;9.802;2022-08-21T19:57:35;5.03;;;3.50;;
7211;SDS011;3647;48.792;9.802;2022-08-21T20:00:04;3.88;;;3.05;;
7211;SDS011;3647;48.792;9.802;2022-08-21T20:02:33;5.03;;;3.42;;
7211;SDS011;3647;48.792;9.802;2022-08-21T20:05:01;8.70;;;4.40;;
7211;SDS011;3647;48.792;9.802;2022-08-21T20:07:28;7.82;;;3.88;;
7211;SDS011;3647;48.792;9.802;2022-08-21T20:09:55;6.70;;;3.70;;
7211;SDS011;3647;48.792;9.802;2022-08-21T20:12:22;4.47;;;3.47;;
7211;SDS011;3647;48.792;9.802;2022-08-21T20:14:49;7.57;;;3.55;;
7211;SDS011;3647;48.792;9.802;2022-08-21T20:17:17;4.68;;;3.67;;
7211;SDS011;3647;48.792;9.802;2022-08-21T20:19:45;7.78;;;3.85;;
7211;SDS011;3647;48.792;9.802;2022-08-21T20:22:13;5.97;;;4.00;;
7211;SDS011;3647;48.792;9.802;2022-08-21T20:24:40;6.22;;;3.20;;
7211;SDS011;3647;48.792;9.802;2022-08-21T20:27:08;5.40;;;3.67;;
7211;SDS011;3647;48.792;9.802;2022-08-21T20:29:38;6.18;;;4.07;;
7211;SDS011;3647;48.792;9.802;2022-08-21T20:32:06;5.90;;;3.30;;
7211;SDS011;3647;48.792;9.802;2022-08-21T20:34:35;8.00;;;4.10;;
7211;SDS011;3647;48.792;9.802;2022-08-21T20:37:02;6.68;;;3.80;;
7211;SDS011;3647;48.792;9.802;2022-08-21T20:39:29;5.47;;;3.90;;
7211;SDS011;3647;48.792;9.802;2022-08-21T20:41:55;7.00;;;3.53;;
7211;SDS011;3647;48.792;9.802;2022-08-21T20:44:22;5.40;;;3.58;;
7211;SDS011;3647;48.792;9.802;2022-08-21T20:46:54;4.72;;;3.78;;
7211;SDS011;3647;48.792;9.802;2022-08-21T20:49:23;4.25;;;3.85;;
7211;SDS011;3647;48.792;9.802;2022-08-21T20:51:54;5.22;;;3.92;;
7211;SDS011;3647;48.792;9.802;2022-08-21T20:54:25;5.75;;;3.78;;
7211;SDS011;3647;48.792;9.802;2022-08-21T20:56:56;8.10;;;4.10;;
7211;SDS011;3647;48.792;9.802;2022-08-21T20:59:35;6.50;;;4.05;;
7211;SDS011;3647;48.792;9.802;2022-08-21T21:02:09;5.82;;;3.63;;
7211;SDS011;3647;48.792;9.802;2022-08-21T21:05:00;7.65;;;4.07;;
7211;SDS011;3647;48.792;9.802;2022-08-21T21:07:34;5.00;;;4.40;;
7211;SDS011;3647;48.792;9.802;2022-08-21T21:10:05;7.45;;;4.53;;
7211;SDS011;3647;48.792;9.802;2022-08-21T21:12:38;5.25;;;3.85;;
7211;SDS011;3647;48.792;9.802;2022-08-21T21:15:10;9.30;;;4.32;;
7211;SDS011;3647;48.792;9.802;2022-08-21T21:17:43;8.73;;;4.07;;
7211;SDS011;3647;48.792;9.802;2022-08-21T21:20:16;4.47;;;3.90;;
7211;SDS011;3647;48.792;9.802;2022-08-21T21:22:50;7.85;;;4.47;;
7211;SDS011;3647;48.792;9.802;2022-08-21T21:25:21;5.47;;;4.80;;
7211;SDS011;3647;48.792;9.802;2022-08-21T21:27:56;5.47;;;3.97;;
7211;SDS011;3647;48.792;9.802;2022-08-21T21:30:27;5.28;;;4.45;;
7211;SDS011;3647;48.792;9.802;2022-08-21T21:32:57;6.60;;;3.95;;
7211;SDS011;3647;48.792;9.802;2022-08-21T21:35:24;5.93;;;4.57;;
7211;SDS011;3647;48.792;9.802;2022-08-21T21:37:58;8.40;;;4.30;;
7211;SDS011;3647;48.792;9.802;2022-08-21T21:40:31;7.88;;;4.22;;
7211;SDS011;3647;48.792;9.802;2022-08-21T21:43:06;6.78;;;4.55;;
7211;SDS011;3647;48.792;9.802;2022-08-21T21:45:43;7.90;;;4.10;;
7211;SDS011;3647;48.792;9.802;2022-08-21T21:48:26;7.07;;;4.25;;
